Terminal Aerodrome Forecast
Issued by NWS Denver/Boulder, CO

Home | Current Version | Previous Version | Text Only | Print | Product List | Glossary On
Versions: 1 2 3 4 5 6 7 8 9 10 11 12 13 14 15 16 17 18 19 20 21 22 23 24 25 26 27 28 29 30 31 32 33 34 35 36 37 38 39 40 41 42 43 44 45 46 47 48
000
FTUS45 KBOU 291046 AAC
TAFDEN
TAF AMD
KDEN 291046Z 2911/3012 07008KT 2SM -SN SCT005 OVC011
      TEMPO 2911/2912 3/4SM -SN BR BKN004 OVC010
     FM291200 07005KT 5SM -SN BR BKN007 OVC015
     FM291500 07010KT 1SM -SN BR OVC005
     FM291800 04010KT 2SM -SNRA BR OVC007
     FM292200 02011KT 2SM -SNRA BR OVC011
     FM300100 35008KT 2SM -SN BR BKN008 OVC014
     FM300500 34012KT 1SM -SN BR BKN007 OVC011=

USA.gov is the U.S. government's official web portal to all federal, state and local government web resources and services.